sensor_id;sensor_type;location;lat;lon;timestamp;pressure;altitude;pressure_sealevel;temperature;humidity
74372;BME280;62885;51.374;6.170;2024-03-22T00:02:18;63815.69;;;11.89;100.00
74372;BME280;62885;51.374;6.170;2024-03-22T00:04:44;63809.22;;;11.86;100.00
74372;BME280;62885;51.374;6.170;2024-03-22T00:07:09;63819.44;;;11.90;100.00
74372;BME280;62885;51.374;6.170;2024-03-22T00:09:34;63816.19;;;11.87;100.00
74372;BME280;62885;51.374;6.170;2024-03-22T00:12:00;63811.34;;;11.85;100.00
74372;BME280;62885;51.374;6.170;2024-03-22T00:14:25;63815.09;;;11.86;100.00
74372;BME280;62885;51.374;6.170;2024-03-22T00:16:51;63803.22;;;11.80;100.00
74372;BME280;62885;51.374;6.170;2024-03-22T00:19:16;63807.03;;;11.84;100.00
74372;BME280;62885;51.374;6.170;2024-03-22T00:21:41;63809.63;;;11.81;100.00
74372;BME280;62885;51.374;6.170;2024-03-22T00:24:07;63804.78;;;11.79;100.00
74372;BME280;62885;51.374;6.170;2024-03-22T00:26:32;63808.06;;;11.82;100.00
74372;BME280;62885;51.374;6.170;2024-03-22T00:28:58;63805.34;;;11.80;100.00
74372;BME280;62885;51.374;6.170;2024-03-22T00:31:24;63811.34;;;11.85;100.00
74372;BME280;62885;51.374;6.170;2024-03-22T00:33:51;63809.78;;;11.86;100.00
74372;BME280;62885;51.374;6.170;2024-03-22T00:36:17;63809.78;;;11.86;100.00
74372;BME280;62885;51.374;6.170;2024-03-22T00:38:42;63809.69;;;11.84;100.00
74372;BME280;62885;51.374;6.170;2024-03-22T00:41:07;63814.53;;;11.86;100.00
74372;BME280;62885;51.374;6.170;2024-03-22T00:43:33;63814.53;;;11.86;100.00
74372;BME280;62885;51.374;6.170;2024-03-22T00:45:58;63812.97;;;11.87;100.00
74372;BME280;62885;51.374;6.170;2024-03-22T00:48:24;63818.88;;;11.90;100.00
74372;BME280;62885;51.374;6.170;2024-03-22T00:50:49;63822.09;;;11.90;100.00
74372;BME280;62885;51.374;6.170;2024-03-22T00:53:15;63771.03;;;11.90;100.00
74372;BME280;62885;51.374;6.170;2024-03-22T00:55:40;63822.16;;;11.93;100.00
74372;BME280;62885;51.374;6.170;2024-03-22T00:58:05;63826.59;;;12.00;100.00
74372;BME280;62885;51.374;6.170;2024-03-22T01:00:31;63821.69;;;11.95;100.00
74372;BME280;62885;51.374;6.170;2024-03-22T01:02:56;63824.41;;;11.98;100.00
74372;BME280;62885;51.374;6.170;2024-03-22T01:05:22;63823.78;;;11.94;100.00
74372;BME280;62885;51.374;6.170;2024-03-22T01:07:47;63830.34;;;12.01;100.00
74372;BME280;62885;51.374;6.170;2024-03-22T01:10:13;63829.78;;;12.00;100.00
74372;BME280;62885;51.374;6.170;2024-03-22T01:12:39;63823.31;;;11.97;100.00
74372;BME280;62885;51.374;6.170;2024-03-22T01:15:05;63825.50;;;11.99;100.00
74372;BME280;62885;51.374;6.170;2024-03-22T01:17:31;63832.03;;;12.05;100.00
74372;BME280;62885;51.374;6.170;2024-03-22T01:19:56;63831.50;;;12.04;100.00
74372;BME280;62885;51.374;6.170;2024-03-22T01:22:22;63828.84;;;12.04;100.00
74372;BME280;62885;51.374;6.170;2024-03-22T01:24:48;63831.41;;;12.02;100.00
74372;BME280;62885;51.374;6.170;2024-03-22T01:27:14;63828.84;;;12.04;100.00
74372;BME280;62885;51.374;6.170;2024-03-22T01:29:39;63836.41;;;12.09;100.00
74372;BME280;62885;51.374;6.170;2024-03-22T01:32:05;63836.88;;;12.07;100.00
74372;BME280;62885;51.374;6.170;2024-03-22T01:34:30;63834.69;;;12.05;100.00
74372;BME280;62885;51.374;6.170;2024-03-22T01:36:56;63838.03;;;12.10;100.00
74372;BME280;62885;51.374;6.170;2024-03-22T01:39:21;63838.59;;;12.11;100.00
74372;BME280;62885;51.374;6.170;2024-03-22T01:41:56;63846.16;;;12.15;100.00
74372;BME280;62885;51.374;6.170;2024-03-22T01:44:27;63844.56;;;12.16;100.00
74372;BME280;62885;51.374;6.170;2024-03-22T01:46:53;63843.41;;;12.13;100.00
74372;BME280;62885;51.374;6.170;2024-03-22T01:49:18;63844.50;;;12.14;100.00
74372;BME280;62885;51.374;6.170;2024-03-22T01:51:44;63842.94;;;12.15;100.00
74372;BME280;62885;51.374;6.170;2024-03-22T01:54:09;63842.94;;;12.15;100.00
74372;BME280;62885;51.374;6.170;2024-03-22T01:56:39;63838.72;;;12.16;100.00
74372;BME280;62885;51.374;6.170;2024-03-22T01:59:05;63845.13;;;12.17;100.00
74372;BME280;62885;51.374;6.170;2024-03-22T02:01:31;63844.09;;;12.18;100.00
74372;BME280;62885;51.374;6.170;2024-03-22T02:03:57;63846.19;;;12.18;100.00
74372;BME280;62885;51.374;6.170;2024-03-22T02:06:22;63839.72;;;12.14;100.00
74372;BME280;62885;51.374;6.170;2024-03-22T02:08:48;63844.50;;;12.14;100.00
74372;BME280;62885;51.374;6.170;2024-03-22T02:11:13;63847.28;;;12.19;100.00
74372;BME280;62885;51.374;6.170;2024-03-22T02:13:39;63845.13;;;12.17;100.00
74372;BME280;62885;51.374;6.170;2024-03-22T02:16:04;63843.00;;;12.17;100.00
74372;BME280;62885;51.374;6.170;2024-03-22T02:18:30;63843.91;;;12.11;100.00
74372;BME280;62885;51.374;6.170;2024-03-22T02:20:58;63846.28;;;12.20;100.00
74372;BME280;62885;51.374;6.170;2024-03-22T02:23:37;63845.13;;;12.17;100.00
74372;BME280;62885;51.374;6.170;2024-03-22T02:26:03;63847.28;;;12.19;100.00
74372;BME280;62885;51.374;6.170;2024-03-22T02:28:29;63841.31;;;12.13;100.00
74372;BME280;62885;51.374;6.170;2024-03-22T02:30:55;63849.94;;;12.19;100.00
74372;BME280;62885;51.374;6.170;2024-03-22T02:33:20;63845.19;;;12.19;100.00
74372;BME280;62885;51.374;6.170;2024-03-22T02:35:47;63844.03;;;12.16;100.00
74372;BME280;62885;51.374;6.170;2024-03-22T02:38:12;63845.59;;;12.15;100.00
74372;BME280;62885;51.374;6.170;2024-03-22T02:40:38;63843.53;;;12.18;100.00
74372;BME280;62885;51.374;6.170;2024-03-22T02:43:03;63845.66;;;12.17;100.00
74372;BME280;62885;51.374;6.170;2024-03-22T02:45:30;63849.47;;;12.21;100.00
74372;BME280;62885;51.374;6.170;2024-03-22T02:47:55;63848.94;;;12.20;100.00
74372;BME280;62885;51.374;6.170;2024-03-22T02:50:21;63854.31;;;12.23;100.00
74372;BME280;62885;51.374;6.170;2024-03-22T02:52:48;63854.78;;;12.21;100.00
74372;BME280;62885;51.374;6.170;2024-03-22T02:55:13;63846.28;;;12.20;100.00
74372;BME280;62885;51.374;6.170;2024-03-22T02:57:41;63799.38;;;12.16;100.00
74372;BME280;62885;51.374;6.170;2024-03-22T03:00:07;63841.38;;;12.16;100.00
74372;BME280;62885;51.374;6.170;2024-03-22T03:02:32;63837.53;;;12.12;100.00
74372;BME280;62885;51.374;6.170;2024-03-22T03:04:58;63835.38;;;12.10;100.00
74372;BME280;62885;51.374;6.170;2024-03-22T03:07:26;63836.94;;;12.09;100.00
74372;BME280;62885;51.374;6.170;2024-03-22T03:09:53;63832.59;;;12.05;100.00
74372;BME280;62885;51.374;6.170;2024-03-22T03:12:18;63836.94;;;12.09;100.00
74372;BME280;62885;51.374;6.170;2024-03-22T03:14:43;63830.94;;;12.04;100.00
74372;BME280;62885;51.374;6.170;2024-03-22T03:17:09;63834.16;;;12.04;100.00
74372;BME280;62885;51.374;6.170;2024-03-22T03:19:34;63841.16;;;12.08;100.00
74372;BME280;62885;51.374;6.170;2024-03-22T03:21:59;63833.06;;;12.03;100.00
74372;BME280;62885;51.374;6.170;2024-03-22T03:24:25;63827.66;;;12.01;100.00
74372;BME280;62885;51.374;6.170;2024-03-22T03:26:50;63825.50;;;11.99;100.00
74372;BME280;62885;51.374;6.170;2024-03-22T03:29:15;63834.16;;;12.04;100.00
74372;BME280;62885;51.374;6.170;2024-03-22T03:31:41;63823.88;;;11.97;100.00
74372;BME280;62885;51.374;6.170;2024-03-22T03:34:06;63823.88;;;11.97;100.00
74372;BME280;62885;51.374;6.170;2024-03-22T03:36:32;63821.69;;;11.95;100.00
74372;BME280;62885;51.374;6.170;2024-03-22T03:38:57;63829.25;;;12.00;100.00
74372;BME280;62885;51.374;6.170;2024-03-22T03:41:22;63824.97;;;11.98;100.00
74372;BME280;62885;51.374;6.170;2024-03-22T03:43:48;63824.88;;;11.96;100.00
74372;BME280;62885;51.374;6.170;2024-03-22T03:46:13;63822.22;;;11.96;100.00
74372;BME280;62885;51.374;6.170;2024-03-22T03:48:38;63823.78;;;11.94;100.00
74372;BME280;62885;51.374;6.170;2024-03-22T03:51:05;63827.13;;;12.00;100.00
74372;BME280;62885;51.374;6.170;2024-03-22T03:53:30;63828.22;;;12.01;100.00
74372;BME280;62885;51.374;6.170;2024-03-22T03:55:56;63825.97;;;11.97;100.00
74372;BME280;62885;51.374;6.170;2024-03-22T03:58:21;63828.75;;;12.02;100.00
74372;BME280;62885;51.374;6.170;2024-03-22T04:00:46;63829.78;;;12.00;100.00
74372;BME280;62885;51.374;6.170;2024-03-22T04:03:12;63830.94;;;12.04;100.00
74372;BME280;62885;51.374;6.170;2024-03-22T04:05:37;63826.59;;;12.00;100.00
74372;BME280;62885;51.374;6.170;2024-03-22T04:08:03;63831.41;;;12.02;100.00
74372;BME280;62885;51.374;6.170;2024-03-22T04:10:28;63825.44;;;11.96;100.00
74372;BME280;62885;51.374;6.170;2024-03-22T04:12:54;63821.69;;;11.95;100.00
74372;BME280;62885;51.374;6.170;2024-03-22T04:15:19;63822.22;;;11.96;100.00
74372;BME280;62885;51.374;6.170;2024-03-22T04:17:44;63818.97;;;11.92;100.00
74372;BME280;62885;51.374;6.170;2024-03-22T04:20:10;63821.13;;;11.94;100.00
74372;BME280;62885;51.374;6.170;2024-03-22T04:22:36;63821.13;;;11.94;100.00
74372;BME280;62885;51.374;6.170;2024-03-22T04:25:02;63816.22;;;11.90;100.00
74372;BME280;62885;51.374;6.170;2024-03-22T04:27:28;63814.13;;;11.90;100.00
74372;BME280;62885;51.374;6.170;2024-03-22T04:29:53;63816.84;;;11.93;100.00
74372;BME280;62885;51.374;6.170;2024-03-22T04:32:18;63818.41;;;11.92;100.00
74372;BME280;62885;51.374;6.170;2024-03-22T04:34:44;63823.78;;;11.94;100.00
74372;BME280;62885;51.374;6.170;2024-03-22T04:37:10;63820.59;;;11.94;100.00
74372;BME280;62885;51.374;6.170;2024-03-22T04:39:37;63814.06;;;11.88;100.00
74372;BME280;62885;51.374;6.170;2024-03-22T04:42:03;63816.22;;;11.90;100.00
74372;BME280;62885;51.374;6.170;2024-03-22T04:44:29;63815.09;;;11.86;100.00
74372;BME280;62885;51.374;6.170;2024-03-22T04:46:54;63815.63;;;11.87;100.00
74372;BME280;62885;51.374;6.170;2024-03-22T04:49:19;63816.19;;;11.87;100.00
74372;BME280;62885;51.374;6.170;2024-03-22T04:51:45;63817.78;;;11.89;100.00
74372;BME280;62885;51.374;6.170;2024-03-22T04:54:10;63810.31;;;11.87;100.00
74372;BME280;62885;51.374;6.170;2024-03-22T04:56:36;63782.09;;;11.85;100.00
74372;BME280;62885;51.374;6.170;2024-03-22T04:59:01;63811.88;;;11.86;100.00
74372;BME280;62885;51.374;6.170;2024-03-22T05:01:26;63805.94;;;11.83;100.00
74372;BME280;62885;51.374;6.170;2024-03-22T05:03:52;63805.88;;;11.80;100.00
74372;BME280;62885;51.374;6.170;2024-03-22T05:06:17;63814.00;;;11.85;100.00
74372;BME280;62885;51.374;6.170;2024-03-22T05:08:43;63805.94;;;11.83;100.00
74372;BME280;62885;51.374;6.170;2024-03-22T05:11:09;63810.19;;;11.82;100.00
74372;BME280;62885;51.374;6.170;2024-03-22T05:13:34;63802.59;;;11.77;100.00
74372;BME280;62885;51.374;6.170;2024-03-22T05:16:00;63806.91;;;11.79;100.00
74372;BME280;62885;51.374;6.170;2024-03-22T05:18:25;63801.03;;;11.78;100.00
74372;BME280;62885;51.374;6.170;2024-03-22T05:20:50;63804.88;;;11.82;100.00
74372;BME280;62885;51.374;6.170;2024-03-22T05:23:16;63811.81;;;11.83;100.00
74372;BME280;62885;51.374;6.170;2024-03-22T05:25:42;63805.88;;;11.80;100.00
74372;BME280;62885;51.374;6.170;2024-03-22T05:28:08;63814.00;;;11.85;100.00
74372;BME280;62885;51.374;6.170;2024-03-22T05:30:33;63811.41;;;11.88;100.00
74372;BME280;62885;51.374;6.170;2024-03-22T05:32:58;63813.53;;;11.87;100.00
74372;BME280;62885;51.374;6.170;2024-03-22T05:35:24;63815.09;;;11.86;100.00
74372;BME280;62885;51.374;6.170;2024-03-22T05:37:49;63817.88;;;11.91;100.00
74372;BME280;62885;51.374;6.170;2024-03-22T05:40:16;63817.88;;;11.91;100.00
74372;BME280;62885;51.374;6.170;2024-03-22T05:42:41;63817.88;;;11.91;100.00
74372;BME280;62885;51.374;6.170;2024-03-22T05:45:07;63822.72;;;11.93;100.00
74372;BME280;62885;51.374;6.170;2024-03-22T05:47:33;63822.72;;;11.93;100.00
74372;BME280;62885;51.374;6.170;2024-03-22T05:50:01;63824.34;;;11.95;100.00
74372;BME280;62885;51.374;6.170;2024-03-22T05:52:27;63823.78;;;11.94;100.00
74372;BME280;62885;51.374;6.170;2024-03-22T05:54:52;63819.44;;;11.90;100.00
74372;BME280;62885;51.374;6.170;2024-03-22T05:57:18;63816.22;;;11.90;100.00
74372;BME280;62885;51.374;6.170;2024-03-22T05:59:43;63825.44;;;11.96;100.00
74372;BME280;62885;51.374;6.170;2024-03-22T06:02:08;63818.97;;;11.92;100.00
74372;BME280;62885;51.374;6.170;2024-03-22T06:04:34;63815.75;;;11.92;100.00
74372;BME280;62885;51.374;6.170;2024-03-22T06:07:00;63790.81;;;11.93;100.00
74372;BME280;62885;51.374;6.170;2024-03-22T06:09:28;63817.78;;;11.89;100.00
74372;BME280;62885;51.374;6.170;2024-03-22T06:12:05;63822.72;;;11.93;100.00
74372;BME280;62885;51.374;6.170;2024-03-22T06:14:31;63821.13;;;11.94;100.00
74372;BME280;62885;51.374;6.170;2024-03-22T06:16:57;63820.53;;;11.91;100.00
74372;BME280;62885;51.374;6.170;2024-03-22T06:19:23;63824.88;;;11.96;100.00
74372;BME280;62885;51.374;6.170;2024-03-22T06:21:49;63825.44;;;11.96;100.00
74372;BME280;62885;51.374;6.170;2024-03-22T06:24:14;63829.31;;;12.02;100.00
74372;BME280;62885;51.374;6.170;2024-03-22T06:26:39;63827.66;;;12.01;100.00
74372;BME280;62885;51.374;6.170;2024-03-22T06:29:05;63828.75;;;12.02;100.00
74372;BME280;62885;51.374;6.170;2024-03-22T06:31:31;63831.50;;;12.04;100.00
74372;BME280;62885;51.374;6.170;2024-03-22T06:33:56;63828.75;;;12.02;100.00
74372;BME280;62885;51.374;6.170;2024-03-22T06:36:30;63840.16;;;12.10;100.00
74372;BME280;62885;51.374;6.170;2024-03-22T06:38:56;63841.31;;;12.13;100.00
74372;BME280;62885;51.374;6.170;2024-03-22T06:41:22;63845.72;;;12.20;100.00
74372;BME280;62885;51.374;6.170;2024-03-22T06:43:47;63853.78;;;12.22;100.00
74372;BME280;62885;51.374;6.170;2024-03-22T06:46:12;63891.41;;;12.57;100.00
74372;BME280;62885;51.374;6.170;2024-03-22T06:48:38;63912.66;;;12.77;100.00
74372;BME280;62885;51.374;6.170;2024-03-22T06:51:03;63876.13;;;12.43;100.00
74372;BME280;62885;51.374;6.170;2024-03-22T06:53:29;63863.09;;;12.33;100.00
74372;BME280;62885;51.374;6.170;2024-03-22T06:55:54;63863.72;;;12.37;100.00
74372;BME280;62885;51.374;6.170;2024-03-22T06:58:19;63863.16;;;12.36;100.00
74372;BME280;62885;51.374;6.170;2024-03-22T07:00:45;63867.38;;;12.35;100.00
74372;BME280;62885;51.374;6.170;2024-03-22T07:03:10;63877.22;;;12.44;100.00
74372;BME280;62885;51.374;6.170;2024-03-22T07:05:35;63871.81;;;12.42;100.00
74372;BME280;62885;51.374;6.170;2024-03-22T07:08:00;63872.38;;;12.42;100.00
74372;BME280;62885;51.374;6.170;2024-03-22T07:10:26;63872.38;;;12.42;100.00
74372;BME280;62885;51.374;6.170;2024-03-22T07:12:56;63867.53;;;12.40;100.00
74372;BME280;62885;51.374;6.170;2024-03-22T07:15:25;63884.72;;;12.46;100.00
74372;BME280;62885;51.374;6.170;2024-03-22T07:17:51;63881.09;;;12.50;100.00
74372;BME280;62885;51.374;6.170;2024-03-22T07:20:16;63880.00;;;12.49;100.00
74372;BME280;62885;51.374;6.170;2024-03-22T07:22:42;63890.28;;;12.56;100.00
74372;BME280;62885;51.374;6.170;2024-03-22T07:25:07;63884.97;;;12.56;100.00
74372;BME280;62885;51.374;6.170;2024-03-22T07:27:35;63882.78;;;12.54;100.00
74372;BME280;62885;51.374;6.170;2024-03-22T07:30:01;63893.63;;;12.62;100.00
74372;BME280;62885;51.374;6.170;2024-03-22T07:32:26;63897.44;;;12.65;100.00
74372;BME280;62885;51.374;6.170;2024-03-22T07:34:51;63899.69;;;12.70;100.00
74372;BME280;62885;51.374;6.170;2024-03-22T07:37:17;63904.53;;;12.72;100.00
74372;BME280;62885;51.374;6.170;2024-03-22T07:39:42;63897.50;;;12.68;100.00
74372;BME280;62885;51.374;6.170;2024-03-22T07:42:07;63892.63;;;12.63;100.00
74372;BME280;62885;51.374;6.170;2024-03-22T07:44:33;63897.94;;;12.63;100.00
74372;BME280;62885;51.374;6.170;2024-03-22T07:46:58;63892.53;;;12.61;100.00
74372;BME280;62885;51.374;6.170;2024-03-22T07:49:24;63887.69;;;12.59;100.00
74372;BME280;62885;51.374;6.170;2024-03-22T07:51:49;63889.41;;;12.63;100.00
74372;BME280;62885;51.374;6.170;2024-03-22T07:54:14;63886.53;;;12.55;100.00
74372;BME280;62885;51.374;6.170;2024-03-22T07:56:42;63895.19;;;12.61;100.00
74372;BME280;62885;51.374;6.170;2024-03-22T07:59:07;63900.66;;;12.66;100.00
74372;BME280;62885;51.374;6.170;2024-03-22T08:01:33;63906.66;;;12.71;100.00
74372;BME280;62885;51.374;6.170;2024-03-22T08:03:58;63907.31;;;12.77;100.00
74372;BME280;62885;51.374;6.170;2024-03-22T08:06:24;63906.66;;;12.71;100.00
74372;BME280;62885;51.374;6.170;2024-03-22T08:08:49;63861.47;;;12.74;100.00
74372;BME280;62885;51.374;6.170;2024-03-22T08:11:14;63917.06;;;12.84;100.00
74372;BME280;62885;51.374;6.170;2024-03-22T08:13:40;63921.31;;;12.83;100.00
74372;BME280;62885;51.374;6.170;2024-03-22T08:16:05;63927.97;;;12.94;100.00
74372;BME280;62885;51.374;6.170;2024-03-22T08:18:31;63927.50;;;12.96;100.00
74372;BME280;62885;51.374;6.170;2024-03-22T08:20:58;63919.31;;;12.88;100.00
74372;BME280;62885;51.374;6.170;2024-03-22T08:23:24;63923.63;;;12.90;100.00
74372;BME280;62885;51.374;6.170;2024-03-22T08:25:49;63920.34;;;12.87;100.00
74372;BME280;62885;51.374;6.170;2024-03-22T08:28:15;63922.47;;;12.86;100.00
74372;BME280;62885;51.374;6.170;2024-03-22T08:30:41;63926.91;;;12.93;100.00
74372;BME280;62885;51.374;6.170;2024-03-22T08:33:07;63920.34;;;12.87;100.00
74372;BME280;62885;51.374;6.170;2024-03-22T08:35:32;63935.56;;;12.98;100.00
74372;BME280;62885;51.374;6.170;2024-03-22T08:37:58;63926.41;;;12.95;100.00
74372;BME280;62885;51.374;6.170;2024-03-22T08:40:24;63936.09;;;12.99;100.00
74372;BME280;62885;51.374;6.170;2024-03-22T08:42:49;63954.06;;;13.13;100.00
74372;BME280;62885;51.374;6.170;2024-03-22T08:45:14;63967.22;;;13.28;100.00
74372;BME280;62885;51.374;6.170;2024-03-22T08:47:42;63976.00;;;13.38;97.23
74372;BME280;62885;51.374;6.170;2024-03-22T08:50:07;63998.94;;;13.60;97.51
74372;BME280;62885;51.374;6.170;2024-03-22T08:52:33;64007.59;;;13.65;96.52
74372;BME280;62885;51.374;6.170;2024-03-22T08:55:00;64004.31;;;13.62;93.19
74372;BME280;62885;51.374;6.170;2024-03-22T08:57:25;63995.50;;;13.51;92.18
74372;BME280;62885;51.374;6.170;2024-03-22T08:59:51;64001.59;;;13.60;91.87
74372;BME280;62885;51.374;6.170;2024-03-22T09:02:16;64011.41;;;13.69;90.28
74372;BME280;62885;51.374;6.170;2024-03-22T09:04:41;64006.06;;;13.69;90.13
74372;BME280;62885;51.374;6.170;2024-03-22T09:07:07;64000.63;;;13.64;89.85
74372;BME280;62885;51.374;6.170;2024-03-22T09:09:32;63990.81;;;13.54;90.43
74372;BME280;62885;51.374;6.170;2024-03-22T09:11:58;63996.25;;;13.60;90.21
74372;BME280;62885;51.374;6.170;2024-03-22T09:14:23;63953.59;;;13.60;90.26
74372;BME280;62885;51.374;6.170;2024-03-22T09:16:48;64008.25;;;13.71;90.36
74372;BME280;62885;51.374;6.170;2024-03-22T09:19:14;64008.22;;;13.68;90.12
74372;BME280;62885;51.374;6.170;2024-03-22T09:21:39;64013.16;;;13.75;90.36
74372;BME280;62885;51.374;6.170;2024-03-22T09:24:04;64002.69;;;13.61;90.51
74372;BME280;62885;51.374;6.170;2024-03-22T09:26:32;63997.34;;;13.61;90.85
74372;BME280;62885;51.374;6.170;2024-03-22T09:28:58;64002.25;;;13.65;90.55
74372;BME280;62885;51.374;6.170;2024-03-22T09:31:23;64005.53;;;13.68;91.29
74372;BME280;62885;51.374;6.170;2024-03-22T09:33:49;64012.56;;;13.72;90.95
74372;BME280;62885;51.374;6.170;2024-03-22T09:36:14;64011.91;;;13.67;91.69
74372;BME280;62885;51.374;6.170;2024-03-22T09:38:39;64015.25;;;13.72;91.66
74372;BME280;62885;51.374;6.170;2024-03-22T09:41:05;64023.00;;;13.84;91.94
74372;BME280;62885;51.374;6.170;2024-03-22T09:43:30;64020.75;;;13.80;91.11
74372;BME280;62885;51.374;6.170;2024-03-22T09:45:57;64008.75;;;13.69;90.91
74372;BME280;62885;51.374;6.170;2024-03-22T09:48:23;63993.41;;;13.52;91.39
74372;BME280;62885;51.374;6.170;2024-03-22T09:50:49;64001.66;;;13.62;91.11
74372;BME280;62885;51.374;6.170;2024-03-22T09:53:19;64006.56;;;13.67;91.01
74372;BME280;62885;51.374;6.170;2024-03-22T09:55:46;64007.25;;;13.72;90.38
74372;BME280;62885;51.374;6.170;2024-03-22T09:58:12;64012.03;;;13.72;90.90
74372;BME280;62885;51.374;6.170;2024-03-22T10:00:38;64019.19;;;13.81;90.87
74372;BME280;62885;51.374;6.170;2024-03-22T10:03:04;64008.22;;;13.68;91.13
74372;BME280;62885;51.374;6.170;2024-03-22T10:05:30;64017.56;;;13.79;91.13
74372;BME280;62885;51.374;6.170;2024-03-22T10:07:57;64017.56;;;13.79;91.45
74372;BME280;62885;51.374;6.170;2024-03-22T10:10:23;64030.03;;;13.88;91.72
74372;BME280;62885;51.374;6.170;2024-03-22T10:12:48;64026.34;;;13.90;91.59
74372;BME280;62885;51.374;6.170;2024-03-22T10:15:14;64039.81;;;13.95;91.01
74372;BME280;62885;51.374;6.170;2024-03-22T10:17:39;64056.28;;;14.15;90.71
74372;BME280;62885;51.374;6.170;2024-03-22T10:20:06;64061.69;;;14.18;90.29
74372;BME280;62885;51.374;6.170;2024-03-22T10:23:08;64054.59;;;14.11;89.65
74372;BME280;62885;51.374;6.170;2024-03-22T10:25:34;64054.56;;;14.09;89.32
74372;BME280;62885;51.374;6.170;2024-03-22T10:27:59;64028.34;;;13.84;89.28
74372;BME280;62885;51.374;6.170;2024-03-22T10:30:25;64026.81;;;13.88;89.44
74372;BME280;62885;51.374;6.170;2024-03-22T10:32:50;64041.50;;;13.99;89.02
74372;BME280;62885;51.374;6.170;2024-03-22T10:35:16;64028.94;;;13.87;89.44
74372;BME280;62885;51.374;6.170;2024-03-22T10:37:45;64033.38;;;13.94;89.16
74372;BME280;62885;51.374;6.170;2024-03-22T10:40:11;64043.72;;;14.04;88.31
74372;BME280;62885;51.374;6.170;2024-03-22T10:42:41;64040.41;;;13.98;88.31
74372;BME280;62885;51.374;6.170;2024-03-22T10:45:08;64033.44;;;13.96;88.02
74372;BME280;62885;51.374;6.170;2024-03-22T10:47:35;64016.50;;;13.81;89.19
74372;BME280;62885;51.374;6.170;2024-03-22T10:50:05;64028.34;;;13.84;89.91
74372;BME280;62885;51.374;6.170;2024-03-22T10:55:03;64024.09;;;13.85;90.10
74372;BME280;62885;51.374;6.170;2024-03-22T10:57:30;64026.16;;;13.82;90.35
74372;BME280;62885;51.374;6.170;2024-03-22T10:59:56;64027.31;;;13.86;91.54
74372;BME280;62885;51.374;6.170;2024-03-22T11:02:24;64024.56;;;13.83;92.00
74372;BME280;62885;51.374;6.170;2024-03-22T11:04:57;63998.44;;;13.62;92.43
74372;BME280;62885;51.374;6.170;2024-03-22T11:07:23;64006.50;;;13.64;92.61
74372;BME280;62885;51.374;6.170;2024-03-22T11:09:56;64018.50;;;13.75;92.85
74372;BME280;62885;51.374;6.170;2024-03-22T11:12:21;64008.69;;;13.66;92.61
74372;BME280;62885;51.374;6.170;2024-03-22T11:14:48;64000.03;;;13.61;93.03
74372;BME280;62885;51.374;6.170;2024-03-22T11:17:15;64003.34;;;13.66;92.88
74372;BME280;62885;51.374;6.170;2024-03-22T11:19:40;64000.56;;;13.61;93.08
74372;BME280;62885;51.374;6.170;2024-03-22T11:22:08;63998.84;;;13.57;92.87
74372;BME280;62885;51.374;6.170;2024-03-22T11:24:33;63992.84;;;13.51;93.53
74372;BME280;62885;51.374;6.170;2024-03-22T11:26:58;63982.00;;;13.44;93.71
74372;BME280;62885;51.374;6.170;2024-03-22T11:29:24;60863.97;;;-143.06;100.00
74372;BME280;62885;51.374;6.170;2024-03-22T11:31:50;60863.97;;;-143.06;100.00
74372;BME280;62885;51.374;6.170;2024-03-22T11:34:15;60863.97;;;-143.06;100.00
74372;BME280;62885;51.374;6.170;2024-03-22T11:36:40;63920.53;;;13.14;94.78
74372;BME280;62885;51.374;6.170;2024-03-22T11:39:06;63963.41;;;13.24;95.15
74372;BME280;62885;51.374;6.170;2024-03-22T11:41:32;63957.47;;;13.21;95.45
74372;BME280;62885;51.374;6.170;2024-03-22T11:44:00;63969.94;;;13.30;95.68
74372;BME280;62885;51.374;6.170;2024-03-22T11:46:26;63961.28;;;13.25;95.60
74372;BME280;62885;51.374;6.170;2024-03-22T11:48:53;63950.84;;;13.12;95.92
74372;BME280;62885;51.374;6.170;2024-03-22T11:51:19;63938.91;;;13.04;96.64
74372;BME280;62885;51.374;6.170;2024-03-22T11:53:51;63953.59;;;13.15;96.48
74372;BME280;62885;51.374;6.170;2024-03-22T11:56:20;63940.94;;;13.01;97.29
74372;BME280;62885;51.374;6.170;2024-03-22T11:58:48;63942.16;;;13.07;97.40
74372;BME280;62885;51.374;6.170;2024-03-22T12:01:15;63937.31;;;13.05;98.04
74372;BME280;62885;51.374;6.170;2024-03-22T12:03:43;63930.72;;;12.96;98.28
74372;BME280;62885;51.374;6.170;2024-03-22T12:06:09;63933.44;;;12.99;98.47
74372;BME280;62885;51.374;6.170;2024-03-22T12:08:35;63929.69;;;12.98;98.69
74372;BME280;62885;51.374;6.170;2024-03-22T12:11:03;63927.50;;;12.96;99.47
74372;BME280;62885;51.374;6.170;2024-03-22T12:13:28;63931.72;;;12.95;100.00
74372;BME280;62885;51.374;6.170;2024-03-22T12:15:54;63913.31;;;12.83;100.00
74372;BME280;62885;51.374;6.170;2024-03-22T12:18:19;63909.97;;;12.77;100.00
74372;BME280;62885;51.374;6.170;2024-03-22T12:20:44;63898.41;;;12.61;100.00
74372;BME280;62885;51.374;6.170;2024-03-22T12:23:10;63899.09;;;12.67;100.00
74372;BME280;62885;51.374;6.170;2024-03-22T12:25:35;63898.53;;;12.66;100.00
74372;BME280;62885;51.374;6.170;2024-03-22T12:28:00;63898.47;;;12.64;100.00
74372;BME280;62885;51.374;6.170;2024-03-22T12:30:26;63893.63;;;12.62;100.00
74372;BME280;62885;51.374;6.170;2024-03-22T12:32:51;63893.63;;;12.62;100.00
74372;BME280;62885;51.374;6.170;2024-03-22T12:35:17;63878.97;;;12.51;100.00
74372;BME280;62885;51.374;6.170;2024-03-22T12:37:42;63881.69;;;12.53;100.00
74372;BME280;62885;51.374;6.170;2024-03-22T12:40:08;63900.09;;;12.65;100.00
74372;BME280;62885;51.374;6.170;2024-03-22T12:42:34;63899.09;;;12.67;100.00
74372;BME280;62885;51.374;6.170;2024-03-22T12:44:59;63894.19;;;12.62;100.00
74372;BME280;62885;51.374;6.170;2024-03-22T12:47:26;63894.84;;;12.68;100.00
74372;BME280;62885;51.374;6.170;2024-03-22T12:49:52;63895.88;;;12.66;100.00